| time (UTC) | temp F | wind direction | speed knots | gust knots | rain 1hr in | rain 24hr in | rain mn in | humidity % | barometer mb |
| 20260506170008 | 67 | 290 | 0.9 | 5.2 | 0.00 | 0.01 | 0.00 | 36 | 1016.6 |
| 20260506164511 | 65 | 3 | 1.7 | 5.2 | 0.00 | 0.02 | 0.00 | 36 | 1016.6 |
| 20260506163020 | 65 | 266 | 0.9 | 4.3 | 0.00 | 0.02 | 0.00 | 37 | 1016.5 |
| 20260506161524 | 65 | 332 | 0.9 | 5.2 | 0.00 | 0.02 | 0.00 | 39 | 1016.4 |
| 20260506160024 | 64 | 242 | 0.9 | 3.5 | 0.00 | 0.02 | 0.00 | 42 | 1016.6 |
| 20260506154508 | 63 | 303 | 0.0 | 2.6 | 0.00 | 0.02 | 0.00 | 39 | 1016.6 |
| 20260506153020 | 63 | 258 | 0.0 | 2.6 | 0.00 | 0.02 | 0.00 | 39 | 1016.8 |
| 20260506151520 | 61 | 275 | 0.0 | 2.6 | 0.00 | 0.02 | 0.00 | 41 | 1017.0 |
| 20260506150022 | 59 | 190 | 0.9 | 4.3 | 0.00 | 0.03 | 0.00 | 48 | 1017.0 |
| 20260506144527 | 58 | 146 | 1.7 | 5.2 | 0.00 | 0.03 | 0.00 | 48 | 1016.9 |
| 20260506143019 | 56 | 206 | 2.6 | 7.8 | 0.00 | 0.03 | 0.00 | 48 | 1016.8 |
| 20260506141517 | 54 | 178 | 3.5 | 7.8 | 0.00 | 0.03 | 0.00 | 51 | 1016.7 |
| 20260506140023 | 53 | 202 | 4.3 | 7.0 | 0.00 | 0.03 | 0.00 | 53 | 1016.6 |
| 20260506134525 | 51 | 190 | 3.5 | 7.0 | 0.00 | 0.03 | 0.00 | 56 | 1016.4 |
| 20260506133035 | 48 | 195 | 3.5 | 7.0 | 0.00 | 0.03 | 0.00 | 60 | 1016.4 |
| 20260506131528 | 46 | 181 | 3.5 | 6.1 | 0.00 | 0.03 | 0.00 | 64 | 1016.4 |
| 20260506130019 | 46 | 162 | 3.5 | 6.1 | 0.00 | 0.03 | 0.00 | 63 | 1016.3 |
| 20260506124520 | 46 | 151 | 1.7 | 6.1 | 0.00 | 0.03 | 0.00 | 64 | 1016.0 |
| 20260506123024 | 46 | 186 | 3.5 | 7.8 | 0.00 | 0.03 | 0.00 | 64 | 1015.8 |
| 20260506121512 | 47 | 122 | 3.5 | 7.0 | 0.00 | 0.03 | 0.00 | 63 | 1015.6 |
| 20260506120014 | 47 | 186 | 3.5 | 7.0 | 0.00 | 0.03 | 0.00 | 63 | 1015.5 |
| 20260506114521 | 47 | 191 | 2.6 | 6.1 | 0.00 | 0.03 | 0.00 | 64 | 1015.5 |
| 20260506113020 | 47 | 141 | 3.5 | 5.2 | 0.00 | 0.03 | 0.00 | 64 | 1015.5 |
| 20260506111524 | 47 | 181 | 0.9 | 4.3 | 0.00 | 0.04 | 0.00 | 63 | 1015.5 |
| 20260506110012 | 48 | 146 | 0.0 | 4.3 | 0.00 | 0.04 | 0.00 | 63 | 1015.5 |
| 20260506104539 | 48 | 154 | 1.7 | 5.2 | 0.00 | 0.05 | 0.00 | 62 | 1015.3 |
| 20260506103021 | 48 | 176 | 1.7 | 5.2 | 0.00 | 0.06 | 0.00 | 63 | 1015.2 |
| 20260506100035 | 49 | 184 | 2.6 | 5.2 | 0.00 | 0.10 | 0.00 | 62 | 1015.1 |
| 20260506094512 | 49 | 184 | 1.7 | 3.5 | 0.00 | 0.14 | 0.00 | 64 | 1014.8 |
| 20260506093017 | 49 | 146 | 0.9 | 3.5 | 0.00 | 0.19 | 0.00 | 63 | 1014.7 |
| 20260506091524 | 49 | 135 | 0.9 | 3.5 | 0.00 | 0.22 | 0.00 | 63 | 1014.5 |
| 20260506090023 | 49 | 191 | 1.7 | 3.5 | 0.00 | 0.26 | 0.00 | 63 | 1014.5 |
| 20260506084530 | 48 | 168 | 0.0 | 0.0 | 0.00 | 0.29 | 0.00 | 65 | 1014.5 |
| 20260506083030 | 49 | 139 | 0.0 | 1.7 | 0.00 | 0.29 | 0.00 | 64 | 1014.4 |
| 20260506081518 | 49 | 57 | 0.0 | 0.9 | 0.00 | 0.30 | 0.00 | 65 | 1014.4 |
| 20260506073028 | 51 | 155 | 0.9 | 2.6 | 0.00 | 0.30 | 0.00 | 60 | 1014.3 |
| 20260506071515 | 52 | 133 | 0.9 | 3.5 | 0.00 | 0.30 | 0.00 | 59 | 1014.4 |
| 20260506061528 | 52 | 136 | 0.0 | 3.5 | 0.00 | 0.30 | 0.30 | 58 | 1014.0 |
| 20260506044534 | 56 | 48 | 0.0 | 1.7 | 0.00 | 0.30 | 0.30 | 49 | 1013.4 |
| 20260506043026 | 57 | 184 | 0.9 | 1.7 | 0.00 | 0.30 | 0.30 | 49 | 1013.3 |
| 20260506041507 | 58 | 142 | 0.0 | 0.9 | 0.00 | 0.30 | 0.30 | 47 | 1013.0 |
| 20260506040013 | 57 | 231 | 0.0 | 0.9 | 0.00 | 0.30 | 0.30 | 49 | 1012.9 |
| 20260506034516 | 57 | 231 | 0.0 | 0.9 | 0.00 | 0.30 | 0.30 | 51 | 1012.8 |
| 20260506033021 | 57 | 132 | 0.0 | 0.9 | 0.00 | 0.30 | 0.30 | 53 | 1012.4 |
| 20260506031524 | 58 | 93 | 0.0 | 0.9 | 0.00 | 0.30 | 0.30 | 45 | 1012.0 |
| 20260506030005 | 59 | 186 | 0.0 | 1.7 | 0.00 | 0.30 | 0.30 | 47 | 1011.8 |
| 20260506024523 | 61 | 105 | 0.0 | 0.9 | 0.00 | 0.30 | 0.30 | 45 | 1011.3 |
| 20260506023016 | 63 | 188 | 0.0 | 4.3 | 0.00 | 0.30 | 0.30 | 37 | 1011.0 |
| 20260506021538 | 63 | 8 | 0.9 | 4.3 | 0.00 | 0.30 | 0.30 | 35 | 1010.6 |
| 20260506020024 | 63 | 268 | 2.6 | 8.7 | 0.00 | 0.30 | 0.30 | 36 | 1010.2 |
| 20260506014515 | 64 | 99 | 0.9 | 5.2 | 0.00 | 0.30 | 0.30 | 35 | 1010.1 |
| 20260506013011 | 65 | 203 | 0.0 | 7.8 | 0.00 | 0.30 | 0.30 | 37 | 1010.1 |
| 20260506011523 | 65 | 3 | 1.7 | 8.7 | 0.00 | 0.30 | 0.30 | 34 | 1010.0 |
| 20260506010021 | 65 | 150 | 1.7 | 6.1 | 0.00 | 0.30 | 0.30 | 35 | 1009.8 |
| 20260506004526 | 66 | 310 | 0.9 | 6.1 | 0.00 | 0.30 | 0.30 | 34 | 1009.7 |
| 20260506003007 | 69 | 18 | 0.9 | 2.6 | 0.00 | 0.30 | 0.30 | 35 | 1009.7 |
| 20260506001514 | 68 | 252 | 2.6 | 7.0 | 0.00 | 0.30 | 0.30 | 37 | 1009.5 |
| 20260506000019 | 67 | 237 | 0.9 | 7.0 | 0.00 | 0.30 | 0.30 | 41 | 1009.5 |
| 20260505234522 | 67 | 266 | 0.9 | 9.6 | 0.00 | 0.30 | 0.30 | 38 | 1009.4 |
| 20260505233029 | 68 | 195 | 2.6 | 7.0 | 0.00 | 0.30 | 0.30 | 38 | 1009.4 |
| 20260505231508 | 69 | 304 | 0.9 | 14.8 | 0.00 | 0.30 | 0.30 | 37 | 1009.5 |
| 20260505230013 | 68 | 316 | 2.6 | 11.3 | 0.00 | 0.30 | 0.30 | 40 | 1009.5 |
| 20260505224526 | 68 | 252 | 1.7 | 5.2 | 0.00 | 0.30 | 0.30 | 43 | 1009.6 |
| 20260505223024 | 66 | 242 | 0.0 | 9.6 | 0.00 | 0.30 | 0.30 | 52 | 1010.2 |
| 20260505221524 | 66 | 305 | 2.6 | 9.6 | 0.00 | 0.30 | 0.30 | 43 | 1010.1 |
| 20260505220012 | 68 | 183 | 2.6 | 12.2 | 0.00 | 0.30 | 0.30 | 41 | 1009.8 |
| 20260505214515 | 68 | 144 | 1.7 | 7.8 | 0.00 | 0.30 | 0.30 | 41 | 1010.1 |
| 20260505213021 | 67 | 262 | 2.6 | 11.3 | 0.00 | 0.30 | 0.30 | 44 | 1010.3 |
| 20260505211535 | 65 | 291 | 0.9 | 7.0 | 0.00 | 0.30 | 0.30 | 49 | 1010.8 |
| 20260505210028 | 65 | 271 | 3.5 | 13.9 | 0.00 | 0.30 | 0.30 | 48 | 1011.1 |
| 20260505204511 | 68 | 328 | 4.3 | 10.4 | 0.01 | 0.30 | 0.30 | 45 | 1010.8 |
| 20260505203015 | 67 | 15 | 1.7 | 10.4 | 0.01 | 0.30 | 0.30 | 49 | 1011.1 |
| 20260505201523 | 66 | 203 | 1.7 | 6.1 | 0.01 | 0.30 | 0.30 | 54 | 1011.3 |
| 20260505200025 | 64 | 77 | 2.6 | 9.6 | 0.01 | 0.30 | 0.30 | 58 | 1011.6 |
| 20260505194526 | 67 | 306 | 4.3 | 16.5 | 0.00 | 0.29 | 0.29 | 49 | 1011.2 |
| 20260505193014 | 68 | 248 | 1.7 | 7.8 | 0.00 | 0.29 | 0.29 | 48 | 1011.1 |
| 20260505191520 | 66 | 345 | 1.7 | 8.7 | 0.00 | 0.29 | 0.29 | 52 | 1011.0 |
| 20260505190023 | 66 | 359 | 2.6 | 8.7 | 0.00 | 0.29 | 0.29 | 48 | 1011.4 |
| 20260505184514 | 68 | 255 | 2.6 | 7.0 | 0.00 | 0.29 | 0.29 | 49 | 1011.3 |
| 20260505183013 | 69 | 254 | 3.5 | 7.8 | 0.00 | 0.29 | 0.29 | 49 | 1011.3 |
| 20260505181516 | 68 | 34 | 1.7 | 5.2 | 0.00 | 0.29 | 0.29 | 50 | 1011.4 |
| 20260505180019 | 66 | 320 | 1.7 | 4.3 | 0.00 | 0.29 | 0.29 | 59 | 1011.9 |
| 20260505174524 | 65 | 303 | 1.7 | 7.8 | 0.01 | 0.29 | 0.29 | 65 | 1012.1 |
| 20260505173007 | 65 | 314 | 1.7 | 6.1 | 0.01 | 0.29 | 0.29 | 63 | 1012.0 |
| 20260505171513 | 63 | 345 | 1.7 | 4.3 | 0.01 | 0.29 | 0.29 | 77 | 1012.3 |